createdAt,value
2023-02-14T00:00:57.527Z,4.88
2023-02-14T00:01:57.405Z,4.87
2023-02-14T00:02:57.790Z,4.87
2023-02-14T00:03:56.968Z,4.87
2023-02-14T00:04:57.344Z,4.87
2023-02-14T00:05:57.844Z,4.90
2023-02-14T00:06:56.890Z,4.88
2023-02-14T00:07:57.300Z,4.87
2023-02-14T00:08:58.488Z,4.88
2023-02-14T00:09:56.840Z,4.87
2023-02-14T00:10:57.425Z,4.86
2023-02-14T00:11:57.546Z,4.88
2023-02-14T00:12:56.765Z,4.84
2023-02-14T00:13:57.078Z,4.84
2023-02-14T00:14:57.426Z,4.83
2023-02-14T00:15:56.746Z,4.75
2023-02-14T00:16:57.041Z,4.77
2023-02-14T00:17:56.814Z,4.74
2023-02-14T00:18:57.079Z,4.71
2023-02-14T00:19:57.368Z,4.68
2023-02-14T00:20:56.855Z,4.68
2023-02-14T00:21:56.980Z,4.72
2023-02-14T00:22:57.290Z,4.72
2023-02-14T00:23:56.587Z,4.68
2023-02-14T00:24:56.888Z,4.67
2023-02-14T00:25:58.198Z,4.64
2023-02-14T00:26:57.475Z,4.64
2023-02-14T00:27:56.848Z,4.62
2023-02-14T00:28:57.158Z,4.64
2023-02-14T00:29:56.498Z,4.64
2023-02-14T00:30:56.981Z,4.64
2023-02-14T00:31:57.077Z,4.62
2023-02-14T00:32:57.421Z,4.61
2023-02-14T00:33:57.612Z,4.61
2023-02-14T00:34:57.937Z,4.62
2023-02-14T00:35:58.312Z,4.61
2023-02-14T00:36:56.570Z,4.59
2023-02-14T00:37:57.038Z,4.56
2023-02-14T00:38:57.221Z,4.57
2023-02-14T00:39:57.443Z,4.56
2023-02-14T00:40:57.202Z,4.61
2023-02-14T00:41:57.108Z,4.61
2023-02-14T00:42:57.373Z,4.57
2023-02-14T00:43:57.689Z,4.56
2023-02-14T00:44:57.098Z,4.54
2023-02-14T00:45:56.504Z,4.50
2023-02-14T00:46:57.700Z,4.51
2023-02-14T00:47:57.028Z,4.53
2023-02-14T00:48:57.256Z,4.47
2023-02-14T00:49:56.706Z,4.44
2023-02-14T00:50:57.202Z,4.42
2023-02-14T00:51:56.178Z,4.32
2023-02-14T00:52:56.448Z,4.32
2023-02-14T00:53:56.797Z,4.28
2023-02-14T00:54:58.081Z,4.29
2023-02-14T00:55:57.358Z,4.28
2023-02-14T00:56:56.753Z,4.28
2023-02-14T00:57:57.027Z,4.21
2023-02-14T00:58:56.300Z,4.16
2023-02-14T00:59:56.602Z,4.11
2023-02-14T01:00:57.543Z,4.11
2023-02-14T01:01:57.249Z,4.11
2023-02-14T01:02:56.518Z,4.11
2023-02-14T01:03:57.773Z,4.14
2023-02-14T01:04:57.067Z,4.14
2023-02-14T01:05:57.411Z,4.16
2023-02-14T01:06:57.760Z,4.17
2023-02-14T01:07:56.168Z,4.17
2023-02-14T01:08:56.388Z,4.18
2023-02-14T01:09:56.758Z,4.17
2023-02-14T01:10:56.017Z,4.17
2023-02-14T01:11:56.324Z,4.16
2023-02-14T01:12:56.687Z,4.16
2023-02-14T01:13:55.942Z,4.17
2023-02-14T01:14:56.287Z,4.21
2023-02-14T01:15:56.603Z,4.21
2023-02-14T01:16:56.115Z,4.21
2023-02-14T01:17:56.234Z,4.21
2023-02-14T01:18:56.556Z,4.21
2023-02-14T01:19:55.898Z,4.21
2023-02-14T01:20:56.140Z,4.21
2023-02-14T01:21:56.458Z,4.17
2023-02-14T01:22:55.877Z,4.17
2023-02-14T01:23:56.230Z,4.14
2023-02-14T01:24:56.633Z,4.16
2023-02-14T01:25:56.851Z,4.14
2023-02-14T01:26:56.202Z,4.14
2023-02-14T01:27:57.554Z,4.16
2023-02-14T01:28:55.779Z,4.16
2023-02-14T01:29:57.191Z,4.14
2023-02-14T01:30:56.544Z,4.14
2023-02-14T01:31:55.762Z,4.14
2023-02-14T01:32:56.092Z,4.11
2023-02-14T01:33:56.509Z,4.08
2023-02-14T01:34:55.693Z,4.11
2023-02-14T01:35:56.008Z,4.07
2023-02-14T01:36:56.733Z,4.04
2023-02-14T01:37:55.621Z,4.06
2023-02-14T01:38:55.933Z,4.07
2023-02-14T01:39:56.401Z,4.06
2023-02-14T01:40:55.521Z,4.08
2023-02-14T01:41:55.832Z,4.07
2023-02-14T01:42:56.206Z,4.06
2023-02-14T01:43:56.421Z,4.06
2023-02-14T01:44:56.760Z,4.08
2023-02-14T01:45:56.179Z,4.06
2023-02-14T01:46:56.471Z,4.02
2023-02-14T01:47:55.751Z,3.99
2023-02-14T01:48:56.166Z,3.96
2023-02-14T01:49:55.409Z,3.92
2023-02-14T01:50:56.962Z,3.90
2023-02-14T01:51:56.085Z,3.90
2023-02-14T01:52:55.352Z,3.92
2023-02-14T01:53:55.724Z,3.80
2023-02-14T01:54:56.042Z,3.95
2023-02-14T01:55:55.309Z,3.96
2023-02-14T01:56:55.663Z,3.98
2023-02-14T01:57:55.962Z,3.95
2023-02-14T01:58:55.232Z,3.96
2023-02-14T01:59:55.592Z,3.90
2023-02-14T02:00:56.084Z,3.88
2023-02-14T02:01:56.177Z,3.86
2023-02-14T02:02:55.562Z,3.86
2023-02-14T02:03:56.845Z,3.78
2023-02-14T02:04:56.201Z,3.77
2023-02-14T02:05:56.553Z,3.78
2023-02-14T02:06:55.982Z,3.77
2023-02-14T02:07:55.380Z,3.81
2023-02-14T02:08:55.598Z,3.81
2023-02-14T02:09:56.927Z,3.80
2023-02-14T02:10:56.278Z,3.77
2023-02-14T02:11:55.647Z,3.74
2023-02-14T02:12:56.118Z,3.75
2023-02-14T02:13:55.335Z,3.72
2023-02-14T02:14:55.738Z,3.71
2023-02-14T02:15:56.069Z,3.70
2023-02-14T02:16:55.410Z,3.67
2023-02-14T02:17:55.738Z,3.63
2023-02-14T02:18:55.089Z,3.59
2023-02-14T02:19:55.424Z,3.59
2023-02-14T02:20:55.798Z,3.57
2023-02-14T02:21:55.084Z,3.54
2023-02-14T02:22:55.568Z,3.52
2023-02-14T02:23:55.897Z,3.49
2023-02-14T02:24:56.132Z,3.46
2023-02-14T02:25:56.463Z,3.49
2023-02-14T02:26:56.835Z,3.50
2023-02-14T02:27:56.147Z,3.49
2023-02-14T02:28:55.978Z,3.52
2023-02-14T02:29:55.399Z,3.53
2023-02-14T02:30:56.760Z,3.56
2023-02-14T02:31:56.059Z,3.56
2023-02-14T02:32:56.339Z,3.57
2023-02-14T02:33:56.662Z,3.57
2023-02-14T02:34:55.993Z,3.54
2023-02-14T02:35:55.415Z,3.56
2023-02-14T02:36:55.703Z,3.50
2023-02-14T02:37:55.000Z,3.52
2023-02-14T02:38:55.362Z,3.54
2023-02-14T02:39:55.698Z,3.53
2023-02-14T02:40:55.003Z,3.56
2023-02-14T02:41:55.417Z,3.54
2023-02-14T02:42:55.652Z,3.62
2023-02-14T02:43:55.043Z,3.53
2023-02-14T02:44:55.409Z,3.54
2023-02-14T02:45:55.794Z,3.53
2023-02-14T02:46:56.020Z,3.52
2023-02-14T02:47:55.509Z,3.54
2023-02-14T02:48:54.713Z,3.57
2023-02-14T02:49:55.080Z,3.57
2023-02-14T02:50:55.443Z,3.57
2023-02-14T02:51:58.884Z,3.56
2023-02-14T02:52:56.017Z,3.54
2023-02-14T02:53:55.493Z,3.54
2023-02-14T02:54:55.672Z,3.52
2023-02-14T02:55:55.099Z,3.53
2023-02-14T02:56:56.403Z,3.52
2023-02-14T02:57:54.983Z,3.49
2023-02-14T02:58:55.238Z,3.42
2023-02-14T02:59:54.525Z,3.42
2023-02-14T03:00:54.832Z,3.39
2023-02-14T03:01:55.233Z,3.35
2023-02-14T03:02:54.524Z,3.34
2023-02-14T03:03:54.897Z,3.30
2023-02-14T03:04:55.471Z,3.23
2023-02-14T03:05:54.620Z,3.28
2023-02-14T03:06:55.915Z,3.26
2023-02-14T03:07:55.328Z,3.26
2023-02-14T03:08:55.598Z,3.26
2023-02-14T03:09:55.020Z,3.31
2023-02-14T03:10:54.328Z,3.33
2023-02-14T03:11:55.654Z,3.34
2023-02-14T03:12:55.055Z,3.34
2023-02-14T03:13:54.400Z,3.34
2023-02-14T03:14:54.830Z,3.33
2023-02-14T03:15:55.252Z,3.28
2023-02-14T03:16:54.455Z,3.33
2023-02-14T03:17:54.846Z,3.31
2023-02-14T03:18:55.214Z,3.34
2023-02-14T03:19:55.478Z,3.33
2023-02-14T03:20:54.973Z,3.35
2023-02-14T03:21:55.318Z,3.34
2023-02-14T03:22:55.580Z,3.37
2023-02-14T03:23:55.995Z,3.37
2023-02-14T03:24:54.342Z,3.35
2023-02-14T03:25:54.723Z,3.34
2023-02-14T03:26:55.075Z,3.33
2023-02-14T03:27:54.457Z,3.30
2023-02-14T03:28:54.826Z,3.26
2023-02-14T03:29:54.364Z,3.22
2023-02-14T03:30:54.661Z,3.22
2023-02-14T03:31:55.152Z,3.25
2023-02-14T03:32:54.267Z,3.26
2023-02-14T03:33:54.633Z,3.26
2023-02-14T03:34:54.984Z,3.23
2023-02-14T03:35:54.345Z,3.25
2023-02-14T03:36:54.681Z,3.25
2023-02-14T03:37:54.939Z,3.22
2023-02-14T03:38:55.310Z,3.20
2023-02-14T03:39:55.016Z,3.17
2023-02-14T03:40:54.064Z,3.17
2023-02-14T03:41:54.514Z,3.16
2023-02-14T03:42:54.821Z,3.12
2023-02-14T03:43:54.165Z,3.12
2023-02-14T03:44:54.589Z,3.04
2023-02-14T03:45:53.949Z,3.01
2023-02-14T03:46:54.267Z,3.01
2023-02-14T03:47:54.706Z,2.97
2023-02-14T03:48:54.958Z,2.97
2023-02-14T03:49:54.320Z,3.05
2023-02-14T03:50:54.700Z,3.04
2023-02-14T03:51:54.916Z,3.01
2023-02-14T03:52:55.321Z,2.98
2023-02-14T03:53:55.783Z,2.97
2023-02-14T03:54:54.988Z,2.95
2023-02-14T03:55:55.374Z,2.90
2023-02-14T03:56:53.798Z,2.92
2023-02-14T03:57:54.120Z,2.94
2023-02-14T03:58:54.538Z,2.94
2023-02-14T03:59:53.849Z,2.95
2023-02-14T04:00:54.192Z,2.98
2023-02-14T04:01:54.685Z,2.99
2023-02-14T04:02:53.901Z,3.01
2023-02-14T04:03:54.346Z,3.01
2023-02-14T04:04:53.573Z,3.01
2023-02-14T04:05:54.898Z,2.97
2023-02-14T04:06:54.314Z,3.01
2023-02-14T04:07:53.680Z,3.02
2023-02-14T04:08:53.988Z,3.08
2023-02-14T04:09:54.398Z,3.07
2023-02-14T04:10:53.696Z,3.05
2023-02-14T04:11:54.076Z,3.05
2023-02-14T04:12:54.467Z,3.08
2023-02-14T04:13:54.732Z,3.05
2023-02-14T04:14:54.160Z,3.07
2023-02-14T04:15:53.547Z,3.13
2023-02-14T04:16:53.848Z,3.12
2023-02-14T04:17:54.234Z,3.13
2023-02-14T04:18:53.603Z,3.16
2023-02-14T04:19:53.953Z,3.19
2023-02-14T04:20:53.491Z,3.20
2023-02-14T04:21:53.894Z,3.20
2023-02-14T04:22:55.206Z,3.20
2023-02-14T04:23:53.567Z,3.17
2023-02-14T04:24:54.061Z,3.17
2023-02-14T04:25:54.321Z,3.16
2023-02-14T04:26:53.663Z,3.15
2023-02-14T04:27:54.182Z,3.12
2023-02-14T04:28:53.353Z,3.08
2023-02-14T04:29:53.744Z,3.05
2023-02-14T04:30:54.102Z,3.05
2023-02-14T04:31:53.569Z,3.04
2023-02-14T04:32:53.722Z,3.02
2023-02-14T04:33:54.273Z,3.02
2023-02-14T04:34:53.290Z,3.01
2023-02-14T04:35:53.646Z,3.02
2023-02-14T04:36:54.041Z,3.04
2023-02-14T04:37:53.292Z,3.02
2023-02-14T04:38:53.679Z,3.04
2023-02-14T04:39:53.925Z,3.05
2023-02-14T04:40:53.213Z,3.02
2023-02-14T04:41:53.646Z,3.04
2023-02-14T04:42:53.912Z,2.98
2023-02-14T04:43:54.186Z,2.98
2023-02-14T04:44:54.487Z,2.95
2023-02-14T04:45:53.827Z,2.94
2023-02-14T04:46:53.279Z,2.92
2023-02-14T04:47:53.465Z,2.87
2023-02-14T04:48:53.816Z,2.86
2023-02-14T04:49:53.099Z,2.81
2023-02-14T04:50:53.394Z,2.80
2023-02-14T04:51:53.741Z,2.80
2023-02-14T04:52:53.001Z,2.83
2023-02-14T04:53:53.302Z,2.80
2023-02-14T04:54:53.689Z,2.80
2023-02-14T04:55:52.960Z,2.79
2023-02-14T04:56:53.229Z,2.80
2023-02-14T04:57:53.562Z,2.83
2023-02-14T04:58:54.860Z,2.81
2023-02-14T04:59:54.164Z,2.83
2023-02-14T05:00:53.698Z,2.84
2023-02-14T05:01:54.825Z,2.90
2023-02-14T05:02:54.075Z,2.87
2023-02-14T05:03:54.444Z,2.90
2023-02-14T05:04:54.732Z,2.94
2023-02-14T05:05:54.019Z,2.94
2023-02-14T05:06:53.422Z,2.94
2023-02-14T05:07:54.698Z,2.95
2023-02-14T05:08:53.939Z,2.92
2023-02-14T05:09:53.329Z,2.90
2023-02-14T05:10:53.629Z,2.90
2023-02-14T05:11:52.928Z,2.89
2023-02-14T05:12:53.330Z,2.89
2023-02-14T05:13:53.617Z,2.90
2023-02-14T05:14:53.812Z,2.87
2023-02-14T05:15:53.230Z,2.89
2023-02-14T05:16:54.482Z,2.89
2023-02-14T05:17:52.855Z,2.87
2023-02-14T05:18:53.217Z,2.87
2023-02-14T05:19:54.417Z,2.87
2023-02-14T05:20:52.757Z,2.87
2023-02-14T05:21:53.097Z,2.87
2023-02-14T05:22:53.438Z,2.89
2023-02-14T05:23:52.698Z,2.90
2023-02-14T05:24:53.132Z,2.95
2023-02-14T05:25:54.350Z,2.98
2023-02-14T05:26:52.617Z,2.98
2023-02-14T05:27:53.968Z,3.01
2023-02-14T05:28:53.346Z,3.01
2023-02-14T05:29:52.710Z,2.97
2023-02-14T05:30:53.135Z,2.97
2023-02-14T05:31:54.414Z,2.99
2023-02-14T05:32:52.693Z,2.99
2023-02-14T05:33:53.038Z,3.04
2023-02-14T05:34:54.511Z,2.98
2023-02-14T05:35:52.473Z,2.98
2023-02-14T05:36:52.868Z,2.98
2023-02-14T05:37:52.447Z,2.99
2023-02-14T05:38:52.850Z,2.98
2023-02-14T05:39:54.092Z,2.97
2023-02-14T05:40:52.461Z,2.95
2023-02-14T05:41:52.847Z,2.94
2023-02-14T05:42:54.131Z,2.90
2023-02-14T05:43:53.452Z,2.89
2023-02-14T05:44:52.819Z,2.89
2023-02-14T05:45:53.204Z,2.89
2023-02-14T05:46:53.410Z,2.89
2023-02-14T05:47:52.786Z,2.87
2023-02-14T05:48:53.203Z,2.86
2023-02-14T05:49:52.433Z,2.84
2023-02-14T05:50:53.606Z,2.81
2023-02-14T05:51:54.041Z,2.80
2023-02-14T05:52:52.396Z,2.80
2023-02-14T05:53:53.595Z,2.81
2023-02-14T05:54:54.144Z,2.86
2023-02-14T05:55:52.372Z,2.84
2023-02-14T05:56:52.729Z,2.86
2023-02-14T05:57:54.034Z,2.87
2023-02-14T05:58:52.369Z,2.86
2023-02-14T05:59:52.700Z,2.87
2023-02-14T06:00:53.123Z,2.86
2023-02-14T06:01:52.387Z,2.87
2023-02-14T06:02:52.702Z,2.89
2023-02-14T06:03:52.995Z,2.89
2023-02-14T06:04:52.386Z,2.90
2023-02-14T06:05:52.632Z,2.90
2023-02-14T06:06:53.084Z,2.92
2023-02-14T06:07:52.279Z,2.92
2023-02-14T06:08:52.621Z,2.94
2023-02-14T06:09:52.939Z,2.94
2023-02-14T06:10:52.209Z,2.92
2023-02-14T06:11:55.277Z,2.92
2023-02-14T06:12:52.944Z,2.90
2023-02-14T06:13:52.155Z,2.94
2023-02-14T06:14:52.475Z,2.94
2023-02-14T06:15:53.744Z,3.01
2023-02-14T06:16:53.074Z,3.01
2023-02-14T06:17:53.373Z,2.99
2023-02-14T06:18:52.795Z,2.99
2023-02-14T06:19:52.050Z,2.98
2023-02-14T06:20:53.359Z,2.98
2023-02-14T06:21:53.675Z,2.95
2023-02-14T06:22:52.072Z,2.95
2023-02-14T06:23:53.319Z,2.95
2023-02-14T06:24:52.793Z,2.89
2023-02-14T06:25:52.995Z,2.87
2023-02-14T06:26:53.319Z,2.84
2023-02-14T06:27:52.716Z,2.84
2023-02-14T06:28:51.986Z,2.83
2023-02-14T06:29:53.429Z,2.83
2023-02-14T06:30:52.067Z,2.81
2023-02-14T06:31:52.205Z,2.84
2023-02-14T06:32:53.418Z,2.86
2023-02-14T06:33:51.778Z,2.84
2023-02-14T06:34:52.163Z,2.86
2023-02-14T06:35:52.570Z,2.83
2023-02-14T06:36:51.846Z,2.83
2023-02-14T06:37:53.130Z,2.80
2023-02-14T06:38:52.545Z,2.83
2023-02-14T06:39:52.021Z,2.83
2023-02-14T06:40:53.180Z,2.83
2023-02-14T06:41:51.585Z,2.81
2023-02-14T06:42:51.874Z,2.83
2023-02-14T06:43:53.194Z,2.81
2023-02-14T06:44:52.478Z,2.81
2023-02-14T06:45:52.854Z,2.80
2023-02-14T06:46:53.189Z,2.79
2023-02-14T06:47:52.574Z,2.79
2023-02-14T06:48:51.926Z,2.80
2023-02-14T06:49:53.206Z,2.79
2023-02-14T06:50:52.496Z,2.76
2023-02-14T06:51:52.834Z,2.76
2023-02-14T06:52:52.205Z,2.76
2023-02-14T06:53:51.473Z,2.74
2023-02-14T06:54:51.856Z,2.74
2023-02-14T06:55:52.225Z,2.74
2023-02-14T06:56:52.460Z,2.73
2023-02-14T06:57:51.945Z,2.73
2023-02-14T06:58:52.165Z,2.74
2023-02-14T06:59:51.444Z,2.71
2023-02-14T07:00:52.719Z,2.71
2023-02-14T07:01:53.097Z,2.73
2023-02-14T07:02:51.467Z,2.71
2023-02-14T07:03:51.876Z,2.73
2023-02-14T07:04:52.218Z,2.73
2023-02-14T07:05:51.359Z,2.71
2023-02-14T07:06:52.647Z,2.71
2023-02-14T07:07:52.989Z,2.71
2023-02-14T07:08:52.320Z,2.73
2023-02-14T07:09:51.714Z,2.74
2023-02-14T07:10:52.948Z,2.74
2023-02-14T07:11:51.294Z,2.74
2023-02-14T07:12:52.580Z,2.77
2023-02-14T07:13:52.908Z,2.79
2023-02-14T07:14:53.196Z,2.79
2023-02-14T07:15:52.606Z,2.80
2023-02-14T07:16:52.699Z,2.81
2023-02-14T07:17:52.101Z,2.83
2023-02-14T07:18:52.538Z,2.81
2023-02-14T07:19:52.676Z,2.81
2023-02-14T07:20:51.333Z,2.81
2023-02-14T07:21:52.540Z,2.83
2023-02-14T07:22:51.913Z,2.83
2023-02-14T07:23:52.145Z,2.84
2023-02-14T07:24:51.535Z,2.84
2023-02-14T07:25:51.913Z,2.89
2023-02-14T07:26:52.158Z,2.86
2023-02-14T07:27:51.567Z,2.90
2023-02-14T07:28:51.857Z,2.90
2023-02-14T07:29:52.169Z,2.90
2023-02-14T07:30:51.658Z,2.94
2023-02-14T07:31:52.120Z,2.90
2023-02-14T07:32:52.130Z,2.92
2023-02-14T07:33:51.882Z,2.99
2023-02-14T07:34:51.780Z,3.01
2023-02-14T07:35:51.139Z,3.01
2023-02-14T07:36:52.454Z,3.04
2023-02-14T07:37:50.813Z,3.04
2023-02-14T07:38:52.124Z,3.07
2023-02-14T07:39:51.608Z,3.12
2023-02-14T07:40:51.779Z,3.12
2023-02-14T07:41:51.221Z,3.15
2023-02-14T07:42:51.529Z,3.17
2023-02-14T07:43:50.850Z,3.16
2023-02-14T07:44:51.211Z,3.17
2023-02-14T07:45:51.776Z,3.19
2023-02-14T07:46:51.813Z,3.20
2023-02-14T07:47:51.230Z,3.20
2023-02-14T07:48:52.543Z,3.22
2023-02-14T07:49:51.832Z,3.26
2023-02-14T07:50:51.217Z,3.30
2023-02-14T07:51:51.580Z,3.33
2023-02-14T07:52:50.869Z,3.37
2023-02-14T07:53:52.129Z,3.39
2023-02-14T07:54:51.537Z,3.45
2023-02-14T07:55:51.758Z,3.52
2023-02-14T07:56:51.164Z,3.59
2023-02-14T07:57:51.533Z,3.68
2023-02-14T07:58:51.730Z,3.71
2023-02-14T07:59:51.123Z,3.74
2023-02-14T08:00:51.498Z,3.74
2023-02-14T08:01:50.845Z,3.77
2023-02-14T08:02:52.057Z,3.78
2023-02-14T08:03:52.451Z,3.80
2023-02-14T08:04:50.758Z,3.82
2023-02-14T08:05:51.038Z,3.88
2023-02-14T08:06:52.312Z,3.92
2023-02-14T08:07:50.680Z,3.92
2023-02-14T08:08:50.962Z,3.93
2023-02-14T08:09:51.372Z,3.93
2023-02-14T08:10:51.581Z,3.95
2023-02-14T08:11:51.900Z,3.99
2023-02-14T08:12:52.241Z,4.00
2023-02-14T08:13:50.573Z,4.00
2023-02-14T08:14:50.917Z,4.00
2023-02-14T08:15:52.395Z,4.02
2023-02-14T08:16:50.530Z,4.02
2023-02-14T08:17:50.848Z,4.04
2023-02-14T08:18:52.134Z,4.06
2023-02-14T08:19:50.428Z,4.06
2023-02-14T08:20:51.705Z,4.07
2023-02-14T08:21:51.118Z,4.07
2023-02-14T08:22:51.312Z,4.08
2023-02-14T08:23:50.652Z,4.08
2023-02-14T08:24:50.954Z,4.11
2023-02-14T08:25:51.204Z,4.13
2023-02-14T08:26:50.543Z,4.16
2023-02-14T08:27:50.898Z,4.17
2023-02-14T08:28:50.134Z,4.18
2023-02-14T08:29:50.530Z,4.21
2023-02-14T08:30:51.694Z,4.25
2023-02-14T08:31:52.047Z,4.26
2023-02-14T08:32:50.372Z,4.29
2023-02-14T08:33:51.676Z,4.32
2023-02-14T08:34:51.062Z,4.34
2023-02-14T08:35:51.248Z,4.36
2023-02-14T08:36:50.622Z,4.39
2023-02-14T08:37:50.933Z,4.43
2023-02-14T08:38:50.151Z,4.46
2023-02-14T08:39:51.505Z,4.50
2023-02-14T08:40:50.829Z,4.50
2023-02-14T08:41:51.043Z,4.51
2023-02-14T08:42:51.346Z,4.56
2023-02-14T08:43:50.688Z,4.56
2023-02-14T08:44:50.926Z,4.61
2023-02-14T08:45:50.365Z,4.65
2023-02-14T08:46:50.638Z,4.68
2023-02-14T08:47:49.872Z,4.69
2023-02-14T08:48:51.120Z,4.72
2023-02-14T08:49:51.447Z,4.75
2023-02-14T08:50:50.830Z,4.79
2023-02-14T08:51:50.085Z,4.79
2023-02-14T08:52:50.371Z,4.83
2023-02-14T08:53:50.670Z,4.84
2023-02-14T08:54:49.928Z,4.91
2023-02-14T08:55:50.293Z,4.94
2023-02-14T08:56:51.567Z,4.97
2023-02-14T08:57:49.847Z,5.04
2023-02-14T08:58:50.127Z,5.06
2023-02-14T08:59:51.411Z,5.09
2023-02-14T09:00:50.802Z,5.14
2023-02-14T09:01:51.014Z,5.19
2023-02-14T09:02:50.404Z,5.22
2023-02-14T09:03:49.676Z,5.26
2023-02-14T09:04:49.927Z,5.32
2023-02-14T09:05:50.208Z,5.29
2023-02-14T09:06:51.483Z,5.30
2023-02-14T09:07:50.787Z,5.30
2023-02-14T09:08:50.130Z,5.32
2023-02-14T09:09:51.334Z,5.35
2023-02-14T09:10:49.660Z,5.38
2023-02-14T09:11:50.891Z,5.40
2023-02-14T09:12:51.230Z,5.42
2023-02-14T09:13:49.507Z,5.48
2023-02-14T09:14:50.783Z,5.49
2023-02-14T09:15:51.130Z,5.49
2023-02-14T09:16:50.555Z,5.51
2023-02-14T09:17:50.638Z,5.52
2023-02-14T09:18:50.907Z,5.56
2023-02-14T09:19:50.238Z,5.59
2023-02-14T09:20:50.597Z,5.59
2023-02-14T09:21:49.822Z,5.62
2023-02-14T09:22:50.105Z,5.66
2023-02-14T09:23:49.374Z,5.69
2023-02-14T09:24:49.658Z,5.75
2023-02-14T09:25:49.977Z,5.81
2023-02-14T09:26:50.227Z,5.87
2023-02-14T09:27:50.420Z,5.87
2023-02-14T09:28:49.797Z,5.88
2023-02-14T09:29:50.126Z,5.92
2023-02-14T09:30:52.240Z,5.98
2023-02-14T09:31:49.781Z,5.96
2023-02-14T09:32:49.973Z,6.02
2023-02-14T09:33:50.197Z,6.05
2023-02-14T09:34:50.475Z,6.27
2023-02-14T09:35:50.773Z,6.13
2023-02-14T09:36:50.115Z,6.13
2023-02-14T09:37:50.329Z,6.17
2023-02-14T09:38:50.637Z,6.14
2023-02-14T09:39:49.935Z,6.11
2023-02-14T09:40:49.171Z,6.10
2023-02-14T09:41:50.442Z,6.10
2023-02-14T09:42:49.763Z,6.16
2023-02-14T09:43:51.012Z,6.20
2023-02-14T09:44:49.307Z,6.27
2023-02-14T09:45:50.556Z,6.30
2023-02-14T09:46:49.902Z,6.32
2023-02-14T09:47:49.129Z,6.32
2023-02-14T09:48:50.424Z,6.33
2023-02-14T09:49:50.726Z,6.30
2023-02-14T09:50:48.978Z,6.36
2023-02-14T09:51:50.232Z,6.43
2023-02-14T09:52:49.618Z,6.46
2023-02-14T09:53:54.807Z,6.54
2023-02-14T09:54:49.144Z,6.58
2023-02-14T09:55:50.368Z,6.58
2023-02-14T09:56:51.548Z,6.61
2023-02-14T09:57:49.862Z,6.64
2023-02-14T09:58:50.222Z,6.71
2023-02-14T09:59:49.502Z,6.76
2023-02-14T10:00:49.870Z,6.82
2023-02-14T10:01:50.022Z,6.89
2023-02-14T10:02:49.317Z,6.91
2023-02-14T10:03:50.688Z,6.96
2023-02-14T10:04:49.869Z,6.97
2023-02-14T10:05:49.118Z,7.01
2023-02-14T10:06:49.404Z,7.08
2023-02-14T10:07:50.627Z,7.09
2023-02-14T10:08:48.943Z,7.15
2023-02-14T10:09:50.204Z,7.14
2023-02-14T10:10:50.418Z,7.16
2023-02-14T10:11:50.707Z,7.21
2023-02-14T10:12:48.988Z,7.24
2023-02-14T10:13:50.202Z,7.32
2023-02-14T10:14:49.587Z,7.37
2023-02-14T10:15:48.829Z,7.42
2023-02-14T10:16:49.198Z,7.48
2023-02-14T10:17:49.637Z,7.50
2023-02-14T10:18:48.648Z,7.48
2023-02-14T10:19:49.906Z,7.55
2023-02-14T10:20:50.172Z,7.66
2023-02-14T10:21:50.412Z,7.70
2023-02-14T10:22:49.627Z,7.74
2023-02-14T10:23:48.934Z,7.74
2023-02-14T10:24:50.180Z,7.79
2023-02-14T10:25:50.467Z,7.84
2023-02-14T10:26:48.748Z,7.88
2023-02-14T10:27:49.027Z,7.92
2023-02-14T10:28:49.301Z,7.96
2023-02-14T10:29:48.592Z,7.96
2023-02-14T10:30:48.900Z,8.04
2023-02-14T10:31:50.131Z,8.10
2023-02-14T10:32:49.358Z,8.18
2023-02-14T10:33:48.573Z,8.27
2023-02-14T10:34:48.825Z,8.29
2023-02-14T10:35:50.095Z,8.36
2023-02-14T10:36:50.468Z,8.42
2023-02-14T10:37:48.594Z,8.45
2023-02-14T10:38:49.867Z,8.46
2023-02-14T10:39:50.152Z,8.42
2023-02-14T10:40:48.393Z,8.45
2023-02-14T10:41:49.626Z,8.50
2023-02-14T10:42:49.265Z,8.54
2023-02-14T10:43:49.275Z,8.52
2023-02-14T10:44:48.486Z,8.49
2023-02-14T10:45:48.759Z,8.49
2023-02-14T10:46:49.005Z,8.47
2023-02-14T10:47:48.245Z,8.49
2023-02-14T10:48:48.736Z,8.46
2023-02-14T10:49:49.738Z,8.46
2023-02-14T10:50:49.960Z,8.49
2023-02-14T10:51:48.249Z,8.49
2023-02-14T10:52:48.494Z,8.52
2023-02-14T10:53:48.748Z,8.57
2023-02-14T10:54:49.974Z,8.57
2023-02-14T10:55:48.225Z,8.63
2023-02-14T10:56:48.494Z,8.68
2023-02-14T10:57:48.757Z,8.78
2023-02-14T10:58:49.978Z,8.88
2023-02-14T10:59:48.234Z,8.94
2023-02-14T11:00:48.473Z,8.98
2023-02-14T11:01:49.604Z,9.03
2023-02-14T11:02:49.954Z,8.94
2023-02-14T11:03:49.292Z,8.93
2023-02-14T11:04:48.579Z,9.01
2023-02-14T11:05:48.818Z,9.00
2023-02-14T11:06:48.076Z,8.98
2023-02-14T11:07:48.296Z,8.97
2023-02-14T11:08:48.570Z,9.00
2023-02-14T11:09:48.858Z,9.03
2023-02-14T11:10:48.087Z,9.06
2023-02-14T11:11:48.338Z,9.01
2023-02-14T11:12:49.132Z,9.10
2023-02-14T11:13:49.817Z,9.13
2023-02-14T11:14:48.116Z,9.13
2023-02-14T11:15:48.386Z,9.16
2023-02-14T11:16:48.658Z,9.24
2023-02-14T11:17:49.820Z,9.34
2023-02-14T11:18:48.062Z,9.38
2023-02-14T11:19:48.311Z,9.40
2023-02-14T11:20:49.486Z,9.38
2023-02-14T11:21:49.736Z,9.38
2023-02-14T11:22:48.011Z,9.48
2023-02-14T11:23:48.244Z,9.45
2023-02-14T11:24:48.536Z,9.55
2023-02-14T11:25:49.561Z,9.56
2023-02-14T11:26:47.942Z,9.62
2023-02-14T11:27:48.130Z,9.71
2023-02-14T11:28:48.376Z,9.75
2023-02-14T11:29:48.654Z,9.74
2023-02-14T11:30:47.922Z,9.71
2023-02-14T11:31:48.119Z,9.67
2023-02-14T11:32:48.270Z,9.70
2023-02-14T11:33:48.497Z,9.73
2023-02-14T11:34:47.695Z,9.77
2023-02-14T11:35:48.900Z,9.81
2023-02-14T11:36:48.185Z,9.85
2023-02-14T11:37:48.483Z,9.88
2023-02-14T11:38:47.614Z,9.81
2023-02-14T11:39:47.842Z,9.85
2023-02-14T11:40:48.049Z,9.91
2023-02-14T11:41:48.285Z,9.96
2023-02-14T11:42:51.660Z,9.98
2023-02-14T11:43:48.750Z,10.04
2023-02-14T11:44:48.941Z,9.98
2023-02-14T11:45:48.310Z,9.95
2023-02-14T11:46:53.502Z,9.92
2023-02-14T11:47:48.644Z,10.01
2023-02-14T11:48:48.015Z,10.10
2023-02-14T11:49:48.147Z,10.20
2023-02-14T11:50:49.328Z,10.32
2023-02-14T11:51:47.575Z,10.43
2023-02-14T11:52:47.847Z,10.43
2023-02-14T11:53:48.066Z,10.47
2023-02-14T11:54:48.321Z,10.44
2023-02-14T11:55:47.521Z,10.51
2023-02-14T11:56:47.741Z,10.58
2023-02-14T11:57:48.912Z,10.63
2023-02-14T11:58:48.213Z,10.55
2023-02-14T11:59:47.421Z,10.55
2023-02-14T12:00:48.502Z,10.63
2023-02-14T12:01:48.712Z,10.65
2023-02-14T12:02:48.003Z,10.58
2023-02-14T12:03:49.133Z,10.62
2023-02-14T12:04:48.268Z,10.68
2023-02-14T12:05:47.589Z,10.70
2023-02-14T12:06:48.673Z,10.62
2023-02-14T12:07:48.874Z,10.58
2023-02-14T12:08:49.064Z,10.55
2023-02-14T12:09:47.278Z,10.62
2023-02-14T12:10:47.492Z,10.63
2023-02-14T12:11:47.893Z,10.75
2023-02-14T12:12:48.947Z,10.70
2023-02-14T12:13:48.174Z,10.70
2023-02-14T12:14:47.356Z,10.83
2023-02-14T12:15:48.560Z,10.87
2023-02-14T12:16:47.828Z,10.93
2023-02-14T12:17:48.036Z,10.98
2023-02-14T12:18:47.280Z,10.98
2023-02-14T12:19:48.436Z,11.02
2023-02-14T12:20:47.727Z,11.12
2023-02-14T12:21:48.924Z,11.23
2023-02-14T12:22:47.275Z,11.26
2023-02-14T12:23:47.395Z,11.28
2023-02-14T12:24:47.584Z,11.30
2023-02-14T12:25:47.823Z,11.30
2023-02-14T12:26:47.936Z,11.30
2023-02-14T12:27:47.249Z,11.33
2023-02-14T12:28:47.523Z,11.30
2023-02-14T12:29:47.741Z,11.30
2023-02-14T12:30:48.978Z,11.36
2023-02-14T12:31:48.230Z,11.42
2023-02-14T12:32:47.344Z,11.39
2023-02-14T12:33:50.221Z,11.41
2023-02-14T12:34:47.669Z,11.41
2023-02-14T12:35:47.860Z,11.35
2023-02-14T12:36:47.989Z,11.23
2023-02-14T12:37:50.850Z,11.19
2023-02-14T12:38:48.481Z,11.27
2023-02-14T12:39:48.917Z,11.42
2023-02-14T12:40:47.841Z,11.51
2023-02-14T12:41:48.038Z,11.51
2023-02-14T12:42:47.327Z,11.54
2023-02-14T12:43:48.523Z,11.57
2023-02-14T12:44:46.727Z,11.66
2023-02-14T12:45:49.016Z,11.75
2023-02-14T12:46:47.180Z,11.77
2023-02-14T12:47:48.352Z,11.70
2023-02-14T12:48:47.591Z,11.66
2023-02-14T12:49:46.719Z,11.69
2023-02-14T12:50:46.950Z,11.70
2023-02-14T12:51:47.339Z,11.70
2023-02-14T12:52:48.280Z,11.72
2023-02-14T12:53:49.032Z,11.75
2023-02-14T12:54:47.644Z,11.87
2023-02-14T12:55:46.887Z,11.87
2023-02-14T12:56:48.036Z,11.88
2023-02-14T12:57:48.445Z,12.00
2023-02-14T12:58:48.445Z,12.12
2023-02-14T12:59:46.662Z,12.19
2023-02-14T13:00:46.974Z,12.18
2023-02-14T13:01:47.093Z,12.13
2023-02-14T13:02:47.330Z,12.01
2023-02-14T13:03:47.456Z,11.96
2023-02-14T13:04:46.626Z,11.87
2023-02-14T13:05:47.766Z,11.88
2023-02-14T13:06:47.961Z,11.97
2023-02-14T13:07:47.242Z,12.07
2023-02-14T13:08:46.537Z,12.19
2023-02-14T13:09:46.557Z,12.29
2023-02-14T13:10:47.705Z,12.33
2023-02-14T13:11:47.033Z,12.26
2023-02-14T13:12:47.238Z,12.29
2023-02-14T13:13:47.303Z,12.30
2023-02-14T13:14:47.477Z,12.30
2023-02-14T13:15:46.730Z,12.13